createdAt,value
2019-02-25T00:00:23.044Z,7.00
2019-02-25T00:03:28.332Z,6.50
2019-02-25T00:06:31.891Z,6.70
2019-02-25T00:09:35.355Z,7.10
2019-02-25T00:12:40.816Z,7.00
2019-02-25T00:15:44.092Z,6.77
2019-02-25T00:18:47.614Z,6.77
2019-02-25T00:21:51.260Z,7.07
2019-02-25T00:24:54.816Z,7.67
2019-02-25T00:27:58.351Z,8.73
2019-02-25T00:31:01.816Z,6.97
2019-02-25T00:34:05.219Z,7.23
2019-02-25T00:37:08.752Z,6.70
2019-02-25T00:40:12.320Z,7.03
2019-02-25T00:43:15.761Z,6.47
2019-02-25T00:46:19.227Z,7.47
2019-02-25T00:49:22.624Z,6.80
2019-02-25T00:52:26.165Z,7.37
2019-02-25T00:55:29.528Z,7.40
2019-02-25T00:58:33.032Z,7.30
2019-02-25T01:01:36.424Z,7.23
2019-02-25T01:04:39.828Z,7.10
2019-02-25T01:07:43.267Z,8.23
2019-02-25T01:10:46.728Z,7.03
2019-02-25T01:13:50.132Z,7.43
2019-02-25T01:16:53.632Z,7.30
2019-02-25T01:19:57.035Z,7.93
2019-02-25T01:23:00.679Z,7.20
2019-02-25T01:26:04.239Z,7.70
2019-02-25T01:29:07.644Z,8.07
2019-02-25T01:32:11.148Z,7.50
2019-02-25T01:35:14.573Z,6.43
2019-02-25T01:38:18.152Z,6.87
2019-02-25T01:41:21.556Z,7.43
2019-02-25T01:44:25.092Z,7.43
2019-02-25T01:47:28.495Z,6.40
2019-02-25T01:50:32.156Z,6.83
2019-02-25T01:53:35.560Z,6.00
2019-02-25T01:56:38.956Z,5.77
2019-02-25T01:59:42.361Z,6.10
2019-02-25T02:02:45.811Z,7.20
2019-02-25T02:05:49.252Z,6.27
2019-02-25T02:08:52.664Z,7.13
2019-02-25T02:11:56.060Z,6.93
2019-02-25T02:14:59.564Z,6.97
2019-02-25T02:18:02.961Z,6.50
2019-02-25T02:21:06.563Z,7.50
2019-02-25T02:24:10.108Z,7.37
2019-02-25T02:27:13.568Z,6.90
2019-02-25T02:30:17.530Z,7.40
2019-02-25T02:33:21.085Z,6.63
2019-02-25T02:36:24.532Z,6.80
2019-02-25T02:39:28.114Z,7.37
2019-02-25T02:42:31.597Z,7.47
2019-02-25T02:45:44.443Z,7.10
2019-02-25T02:48:51.337Z,6.73
2019-02-25T02:51:54.800Z,7.70
2019-02-25T02:54:58.237Z,7.17
2019-02-25T02:58:01.702Z,7.17
2019-02-25T03:01:05.339Z,7.53
2019-02-25T03:04:08.745Z,7.80
2019-02-25T03:07:12.313Z,7.60
2019-02-25T03:10:17.298Z,8.13
2019-02-25T03:13:20.745Z,7.40
2019-02-25T03:16:24.153Z,7.30
2019-02-25T03:19:27.691Z,7.17
2019-02-25T03:22:31.153Z,7.27
2019-02-25T03:25:34.691Z,8.13
2019-02-25T03:28:38.160Z,8.30
2019-02-25T03:31:41.685Z,8.37
2019-02-25T03:34:45.105Z,9.27
2019-02-25T03:37:48.562Z,7.87
2019-02-25T03:40:51.999Z,8.17
2019-02-25T03:43:55.569Z,8.90
2019-02-25T03:46:58.970Z,8.83
2019-02-25T03:50:02.409Z,8.90
2019-02-25T03:53:06.019Z,8.50
2019-02-25T03:56:09.509Z,8.60
2019-02-25T03:59:14.099Z,7.70
2019-02-25T04:02:17.497Z,9.33
2019-02-25T04:05:21.041Z,9.63
2019-02-25T04:08:24.608Z,9.27
2019-02-25T04:11:28.113Z,9.77
2019-02-25T04:14:31.509Z,9.93
2019-02-25T04:17:34.908Z,9.40
2019-02-25T04:20:38.450Z,10.00
2019-02-25T04:23:41.912Z,9.60
2019-02-25T04:26:45.420Z,9.07
2019-02-25T04:29:48.857Z,9.13
2019-02-25T04:32:52.465Z,9.07
2019-02-25T04:35:55.979Z,9.67
2019-02-25T04:38:59.420Z,8.77
2019-02-25T04:42:02.868Z,9.60
2019-02-25T04:45:11.484Z,9.03
2019-02-25T04:48:14.956Z,10.57
2019-02-25T04:51:18.453Z,10.17
2019-02-25T04:54:21.853Z,10.23
2019-02-25T04:57:25.255Z,9.27
2019-02-25T05:00:29.816Z,10.00
2019-02-25T05:03:33.385Z,10.47
2019-02-25T05:06:36.788Z,9.90
2019-02-25T05:09:40.284Z,10.17
2019-02-25T05:12:49.720Z,9.67
2019-02-25T05:15:53.271Z,9.33
2019-02-25T05:18:57.758Z,11.30
2019-02-25T05:22:01.264Z,11.33
2019-02-25T05:25:05.852Z,9.63
2019-02-25T05:28:09.392Z,10.83
2019-02-25T05:31:12.992Z,11.10
2019-02-25T05:34:16.396Z,10.60
2019-02-25T05:37:19.797Z,10.53
2019-02-25T05:40:23.376Z,10.43
2019-02-25T05:43:26.799Z,10.23
2019-02-25T05:46:30.196Z,11.20
2019-02-25T05:49:33.591Z,13.77
2019-02-25T05:52:36.996Z,14.33
2019-02-25T05:55:40.443Z,12.77
2019-02-25T05:58:43.897Z,11.70
2019-02-25T06:01:47.404Z,11.53
2019-02-25T06:04:50.799Z,11.50
2019-02-25T06:07:54.289Z,10.73
2019-02-25T06:10:57.689Z,11.03
2019-02-25T06:14:01.086Z,11.07
2019-02-25T06:17:04.488Z,11.00
2019-02-25T06:20:08.908Z,11.23
2019-02-25T06:23:12.418Z,11.03
2019-02-25T06:26:15.820Z,10.77
2019-02-25T06:29:19.212Z,11.60
2019-02-25T06:32:22.657Z,11.80
2019-02-25T06:35:26.118Z,11.20
2019-02-25T06:38:29.648Z,12.00
2019-02-25T06:41:33.160Z,10.93
2019-02-25T06:44:36.617Z,10.53
2019-02-25T06:47:40.060Z,11.07
2019-02-25T06:50:43.560Z,10.97
2019-02-25T06:53:47.132Z,10.97
2019-02-25T06:56:50.572Z,11.40
2019-02-25T06:59:54.055Z,11.13
2019-02-25T07:02:57.585Z,10.90
2019-02-25T07:06:07.312Z,10.37
2019-02-25T07:09:17.789Z,10.13
2019-02-25T07:12:28.972Z,10.80
2019-02-25T07:15:58.305Z,11.20
2019-02-25T07:19:07.576Z,11.83
2019-02-25T07:22:33.881Z,11.50
2019-02-25T07:25:50.732Z,13.50
2019-02-25T07:29:03.968Z,13.37
2019-02-25T07:32:41.921Z,12.90
2019-02-25T07:36:22.785Z,13.10
2019-02-25T07:39:54.534Z,11.87
2019-02-25T07:43:06.333Z,13.10
2019-02-25T07:46:27.831Z,13.03
2019-02-25T07:49:50.589Z,13.40
2019-02-25T07:53:04.637Z,13.00
2019-02-25T07:56:39.652Z,13.63
2019-02-25T08:00:07.048Z,13.07
2019-02-25T08:03:28.264Z,12.00
2019-02-25T08:06:54.005Z,12.87
2019-02-25T08:10:04.143Z,12.97
2019-02-25T08:13:26.936Z,13.60
2019-02-25T08:17:05.097Z,13.85
2019-02-25T08:20:18.860Z,13.30
2019-02-25T08:23:45.955Z,12.83
2019-02-25T08:27:06.660Z,14.03
2019-02-25T08:30:35.313Z,13.13
2019-02-25T08:34:00.955Z,13.72
2019-02-25T08:37:58.243Z,13.07
2019-02-25T08:41:15.928Z,13.80
2019-02-25T08:44:44.865Z,13.43
2019-02-25T08:48:07.735Z,14.18
2019-02-25T08:51:11.384Z,14.90
2019-02-25T08:54:14.789Z,15.63
2019-02-25T08:57:18.359Z,14.95
2019-02-25T09:00:21.793Z,16.57
2019-02-25T09:03:25.328Z,16.90
2019-02-25T09:06:28.892Z,16.73
2019-02-25T09:09:32.297Z,18.90
2019-02-25T09:12:35.731Z,18.87
2019-02-25T09:15:40.223Z,18.32
2019-02-25T09:18:43.763Z,19.75
2019-02-25T09:21:47.228Z,21.55
2019-02-25T09:24:50.628Z,28.65
2019-02-25T09:27:54.388Z,20.27
2019-02-25T09:30:57.676Z,19.25
2019-02-25T09:34:01.239Z,18.98
2019-02-25T09:37:04.637Z,21.35
2019-02-25T09:40:09.571Z,19.57
2019-02-25T09:43:13.020Z,19.62
2019-02-25T09:46:16.582Z,19.73
2019-02-25T09:49:19.985Z,18.92
2019-02-25T09:52:24.703Z,20.30
2019-02-25T09:55:28.144Z,19.48
2019-02-25T09:58:31.624Z,19.80
2019-02-25T10:01:35.112Z,19.37
2019-02-25T10:04:38.560Z,21.68
2019-02-25T10:07:42.017Z,21.23
2019-02-25T10:10:45.516Z,19.00
2019-02-25T10:13:48.920Z,21.15
2019-02-25T10:16:53.855Z,20.68
2019-02-25T10:19:57.561Z,19.87
2019-02-25T10:23:00.956Z,20.30
2019-02-25T10:26:04.464Z,19.55
2019-02-25T10:29:08.064Z,18.90
2019-02-25T10:32:11.800Z,19.57
2019-02-25T10:35:15.281Z,19.98
2019-02-25T10:38:19.563Z,18.17
2019-02-25T10:41:25.599Z,18.57
2019-02-25T10:44:29.726Z,18.00
2019-02-25T10:47:33.688Z,18.75
2019-02-25T10:50:38.548Z,17.73
2019-02-25T10:53:45.178Z,19.07
2019-02-25T10:56:55.922Z,18.42
2019-02-25T11:00:00.400Z,17.55
2019-02-25T11:03:03.904Z,17.17
2019-02-25T11:06:07.300Z,16.97
2019-02-25T11:09:35.629Z,16.62
2019-02-25T11:12:40.501Z,16.77
2019-02-25T11:15:46.053Z,16.37
2019-02-25T11:18:52.250Z,17.15
2019-02-25T11:21:55.632Z,17.45
2019-02-25T11:24:59.208Z,16.73
2019-02-25T11:28:04.706Z,15.63
2019-02-25T11:31:08.088Z,16.15
2019-02-25T11:34:11.729Z,14.87
2019-02-25T11:37:16.721Z,12.60
2019-02-25T11:40:20.477Z,12.05
2019-02-25T11:43:23.981Z,11.68
2019-02-25T11:46:27.540Z,9.60
2019-02-25T11:49:31.084Z,10.05
2019-02-25T11:52:34.547Z,11.28
2019-02-25T11:55:37.989Z,10.30
2019-02-25T11:58:41.492Z,10.20
2019-02-25T12:01:44.957Z,10.93
2019-02-25T12:04:48.590Z,10.10
2019-02-25T12:07:52.094Z,9.35
2019-02-25T12:10:55.696Z,9.48
2019-02-25T12:13:59.240Z,8.70
2019-02-25T12:17:02.804Z,9.80
2019-02-25T12:20:07.302Z,9.60
2019-02-25T12:23:10.940Z,8.63
2019-02-25T12:26:14.446Z,8.60
2019-02-25T12:29:17.890Z,8.10
2019-02-25T12:32:21.336Z,9.15
2019-02-25T12:35:24.984Z,8.75
2019-02-25T12:38:28.445Z,8.53
2019-02-25T12:41:31.849Z,8.65
2019-02-25T12:44:35.356Z,8.50
2019-02-25T12:47:38.958Z,8.00
2019-02-25T12:50:42.352Z,9.05
2019-02-25T12:53:45.888Z,8.30
2019-02-25T12:56:49.357Z,8.65
2019-02-25T12:59:52.794Z,8.25
2019-02-25T13:02:56.364Z,8.65
2019-02-25T13:06:01.478Z,8.73
2019-02-25T13:09:12.614Z,8.65
2019-02-25T13:12:16.112Z,9.35
2019-02-25T13:15:19.728Z,8.15
2019-02-25T13:18:23.294Z,8.48
2019-02-25T13:21:26.800Z,8.50
2019-02-25T13:24:30.829Z,7.90
2019-02-25T13:27:35.648Z,8.13
2019-02-25T13:30:39.274Z,8.53
2019-02-25T13:33:42.752Z,8.10
2019-02-25T13:36:46.248Z,8.10
2019-02-25T13:39:49.794Z,6.87
2019-02-25T13:42:53.361Z,6.83
2019-02-25T13:45:56.763Z,4.85
2019-02-25T13:49:00.270Z,6.25
2019-02-25T13:52:03.871Z,7.12
2019-02-25T13:55:08.749Z,7.67
2019-02-25T13:58:12.312Z,7.55
2019-02-25T14:01:15.800Z,7.70
2019-02-25T14:04:19.344Z,7.83
2019-02-25T14:07:22.859Z,7.97
2019-02-25T14:10:26.313Z,7.90
2019-02-25T14:13:29.821Z,8.28
2019-02-25T14:16:33.216Z,7.72
2019-02-25T14:19:36.619Z,8.45
2019-02-25T14:22:40.125Z,7.90
2019-02-25T14:25:43.557Z,8.30
2019-02-25T14:28:48.661Z,7.97
2019-02-25T14:31:52.269Z,8.48
2019-02-25T14:34:55.661Z,8.30
2019-02-25T14:38:05.029Z,7.65
2019-02-25T14:41:06.960Z,8.15
2019-02-25T14:44:10.068Z,7.28
2019-02-25T14:47:20.493Z,6.28
2019-02-25T14:50:19.218Z,5.08
2019-02-25T14:53:22.727Z,4.50
2019-02-25T14:56:26.113Z,4.30
2019-02-25T14:59:29.624Z,3.47
2019-02-25T15:02:33.229Z,3.30
2019-02-25T15:05:36.630Z,3.65
2019-02-25T15:08:40.133Z,3.00
2019-02-25T15:11:43.632Z,3.42
2019-02-25T15:14:47.084Z,3.10
2019-02-25T15:17:52.183Z,3.67
2019-02-25T15:20:56.480Z,4.15
2019-02-25T15:24:02.594Z,4.05
2019-02-25T15:27:08.881Z,3.77
2019-02-25T15:30:16.704Z,4.00
2019-02-25T15:33:19.826Z,3.50
2019-02-25T15:36:24.839Z,4.00
2019-02-25T15:39:30.555Z,4.20
2019-02-25T15:42:37.199Z,4.62
2019-02-25T15:45:41.955Z,5.30
2019-02-25T15:48:45.228Z,7.58
2019-02-25T15:51:48.765Z,6.62
2019-02-25T15:54:52.371Z,6.08
2019-02-25T15:57:55.928Z,6.17
2019-02-25T16:00:59.358Z,6.10
2019-02-25T16:04:04.630Z,6.83
2019-02-25T16:07:12.526Z,6.45
2019-02-25T16:10:16.498Z,6.25
2019-02-25T16:13:20.164Z,6.72
2019-02-25T16:16:23.903Z,6.83
2019-02-25T16:19:37.267Z,7.87
2019-02-25T16:22:34.153Z,6.97
2019-02-25T16:25:38.407Z,7.58
2019-02-25T16:28:41.912Z,6.75
2019-02-25T16:31:45.412Z,6.78
2019-02-25T16:34:49.253Z,6.05
2019-02-25T16:37:55.195Z,5.78
2019-02-25T16:40:58.763Z,5.62
2019-02-25T16:44:06.673Z,6.30
2019-02-25T16:47:11.795Z,6.97
2019-02-25T16:50:16.482Z,7.70
2019-02-25T16:53:21.015Z,8.03
2019-02-25T16:56:24.448Z,8.20
2019-02-25T16:59:27.945Z,11.03
2019-02-25T17:02:33.946Z,12.63
2019-02-25T17:05:38.055Z,13.65
2019-02-25T17:08:42.803Z,13.50
2019-02-25T17:11:46.240Z,13.72
2019-02-25T17:14:49.704Z,16.50
2019-02-25T17:17:53.209Z,14.50
2019-02-25T17:20:56.713Z,13.00
2019-02-25T17:24:01.187Z,11.57
2019-02-25T17:27:06.996Z,11.78
2019-02-25T17:30:15.181Z,13.50
2019-02-25T17:33:18.957Z,13.58
2019-02-25T17:36:23.964Z,16.60
2019-02-25T17:39:29.497Z,18.40
2019-02-25T17:42:33.558Z,23.07
2019-02-25T17:45:38.873Z,21.55
2019-02-25T17:48:42.567Z,22.70
2019-02-25T17:51:46.065Z,21.70
2019-02-25T17:54:49.572Z,21.27
2019-02-25T17:57:54.252Z,21.12
2019-02-25T18:01:00.576Z,19.20
2019-02-25T18:04:06.139Z,19.12
2019-02-25T18:07:09.621Z,17.02
2019-02-25T18:10:13.553Z,17.55
2019-02-25T18:13:16.850Z,18.15
2019-02-25T18:16:20.552Z,19.25
2019-02-25T18:19:24.919Z,19.62
2019-02-25T18:22:30.335Z,19.00
2019-02-25T18:25:34.644Z,18.40
2019-02-25T18:28:39.755Z,17.62
2019-02-25T18:31:43.995Z,18.30
2019-02-25T18:34:47.519Z,20.20
2019-02-25T18:37:51.108Z,19.15
2019-02-25T18:40:54.811Z,19.85
2019-02-25T18:43:59.592Z,17.55
2019-02-25T18:47:06.323Z,17.30
2019-02-25T18:50:15.192Z,17.87
2019-02-25T18:53:20.433Z,19.55
2019-02-25T18:56:30.328Z,19.65
2019-02-25T18:59:38.748Z,20.90
2019-02-25T19:02:42.784Z,18.65
2019-02-25T19:05:46.921Z,20.80
2019-02-25T19:08:53.844Z,17.95
2019-02-25T19:11:59.539Z,18.85
2019-02-25T19:15:06.731Z,19.23
2019-02-25T19:18:13.235Z,17.82
2019-02-25T19:21:17.337Z,19.30
2019-02-25T19:24:21.363Z,23.55
2019-02-25T19:27:27.346Z,23.70
2019-02-25T19:30:34.470Z,25.15
2019-02-25T19:33:39.393Z,24.20
2019-02-25T19:36:44.117Z,22.42
2019-02-25T19:39:50.432Z,22.85
2019-02-25T19:42:54.261Z,21.82
2019-02-25T19:45:59.529Z,19.77
2019-02-25T19:49:05.052Z,19.77
2019-02-25T19:52:12.094Z,22.10
2019-02-25T19:55:21.043Z,20.72
2019-02-25T19:58:30.883Z,20.00
2019-02-25T20:01:31.820Z,21.57
2019-02-25T20:04:35.962Z,22.83
2019-02-25T20:07:42.295Z,22.13
2019-02-25T20:10:46.919Z,20.95
2019-02-25T20:13:51.392Z,20.57
2019-02-25T20:16:55.976Z,22.30
2019-02-25T20:19:59.760Z,23.25
2019-02-25T20:23:06.032Z,24.63
2019-02-25T20:26:13.315Z,23.12
2019-02-25T20:29:16.408Z,22.20
2019-02-25T20:32:20.798Z,22.73
2019-02-25T20:35:26.800Z,22.07
2019-02-25T20:38:32.034Z,22.48
2019-02-25T20:41:35.482Z,21.42
2019-02-25T20:44:40.600Z,20.45
2019-02-25T20:47:44.476Z,21.73
2019-02-25T20:50:49.608Z,21.57
2019-02-25T20:53:57.006Z,22.77
2019-02-25T20:56:58.694Z,22.85
2019-02-25T21:00:04.133Z,19.85
2019-02-25T21:03:12.071Z,20.95
2019-02-25T21:06:16.906Z,20.40
2019-02-25T21:09:21.287Z,23.95
2019-02-25T21:17:01.042Z,23.15
2019-02-25T21:20:07.784Z,25.20
2019-02-25T21:23:12.517Z,21.27
2019-02-25T21:26:16.176Z,24.77
2019-02-25T21:29:23.199Z,21.90
2019-02-25T21:32:26.269Z,25.10
2019-02-25T21:35:36.655Z,24.67
2019-02-25T21:38:37.432Z,27.50
2019-02-25T21:41:43.454Z,30.65
2019-02-25T21:44:48.642Z,31.30
2019-02-25T21:47:56.055Z,31.00
2019-02-25T21:51:02.261Z,30.90
2019-02-25T21:54:08.913Z,30.23
2019-02-25T21:57:14.507Z,31.68
2019-02-25T22:00:19.201Z,27.37
2019-02-25T22:03:22.628Z,26.02
2019-02-25T22:06:29.572Z,28.67
2019-02-25T22:09:37.738Z,29.18
2019-02-25T22:12:40.518Z,28.80
2019-02-25T22:15:46.407Z,26.23
2019-02-25T22:18:52.041Z,26.95
2019-02-25T22:21:58.009Z,24.83
2019-02-25T22:25:06.077Z,25.90
2019-02-25T22:28:07.842Z,22.27
2019-02-25T22:31:13.878Z,21.33
2019-02-25T22:34:18.639Z,22.90
2019-02-25T22:37:24.983Z,23.22
2019-02-25T22:40:29.950Z,23.77
2019-02-25T22:43:33.552Z,28.17
2019-02-25T22:46:39.155Z,28.35
2019-02-25T22:49:42.297Z,29.90
2019-02-25T22:52:45.742Z,28.33
2019-02-25T22:55:49.928Z,28.05
2019-02-25T22:58:56.583Z,30.23
2019-02-25T23:02:01.056Z,32.70
2019-02-25T23:05:04.516Z,32.47
2019-02-25T23:08:10.939Z,30.50
2019-02-25T23:11:14.335Z,28.00
2019-02-25T23:14:18.508Z,27.30
2019-02-25T23:17:22.048Z,29.67
2019-02-25T23:20:27.323Z,28.03
2019-02-25T23:23:32.902Z,28.77
2019-02-25T23:26:36.244Z,30.63
2019-02-25T23:29:39.703Z,29.98
2019-02-25T23:32:44.269Z,28.80
2019-02-25T23:35:49.195Z,26.87
2019-02-25T23:38:54.792Z,31.07
2019-02-25T23:42:00.621Z,29.83
2019-02-25T23:45:03.769Z,36.70
2019-02-25T23:48:08.948Z,33.53
2019-02-25T23:51:18.935Z,34.65
2019-02-25T23:54:23.282Z,32.38
2019-02-25T23:57:28.745Z,31.75
